Monday, October 16, 2017, 6:03 PM EDT
Back to Local

KHWV, Shirley Brookhaven Airport

Location: Shirley, NY, United States Lat: 40.817
Local Time: 6:03 PM EDT (22:03 GMT) Lon: -72.867
Time Zone: US/Eastern Elev: 82 ft

Show me the last for .
Show Decoded

2017-10-16 16:56 METAR KHWV 162056Z AUTO 34016G21KT 10SM CLR 15/06 A3003 RMK AO2 SLP170 T01500056
                 51019 =
2017-10-16 15:56 METAR KHWV 161956Z AUTO 34010KT 10SM CLR 14/06 A3001 RMK AO2 SLP164 T01440061 =
2017-10-16 14:56 METAR KHWV 161856Z AUTO 34013G23KT 10SM CLR 14/06 A3000 RMK AO2 SLP160 T01390056
                 =
2017-10-16 13:56 METAR KHWV 161756Z AUTO 32016G22KT 10SM CLR 15/07 A2998 RMK AO2 SLP151 60000
                 T01500072 10172 20150 50004 =
2017-10-16 12:56 METAR KHWV 161656Z AUTO 35014G20KT 10SM FEW031 16/08 A2998 RMK AO2 SLP150
                 T01610083 =
2017-10-16 11:56 METAR KHWV 161556Z AUTO 34009KT 10SM FEW032 16/09 A2998 RMK AO2 SLP152 T01610089
                 $ =
2017-10-16 10:56 METAR KHWV 161456Z AUTO 35010G17KT 10SM OVC030 16/08 A2997 RMK AO2 SLP147 60000
                 T01560083 50008 $ =
2017-10-16 10:42 METAR KHWV 161442Z AUTO 33014KT 10SM OVC029 16/09 A2996 RMK AO2 T01560089 $ =
2017-10-16 10:26 METAR KHWV 161426Z AUTO 34008KT 10SM OVC030 16/10 A2998 RMK AO2 T01610100 $ =
2017-10-16 09:56 METAR KHWV 161356Z AUTO 33011KT 10SM OVC027 17/11 A2997 RMK AO2 PRESRR SLP147
                 T01670111 $ =
2017-10-16 08:56 METAR KHWV 161256Z AUTO 33006KT 10SM BKN027 17/12 A2994 RMK AO2 RAE01 SLP137
                 P0000 T01720122 $ =
2017-10-16 08:53 METAR KHWV 161253Z AUTO 32008KT 10SM BKN027 17/12 A2994 RMK AO2 RAE01 P0000 $ =
2017-10-16 07:56 METAR KHWV 161156Z AUTO 30008KT 10SM -RA BKN110 17/12 A2990 RMK AO2 RAE02B37
                 SLP124 P0000 60000 T01720122 10217 20172 51025 $ =
2017-10-16 06:56 METAR KHWV 161056Z AUTO 28005KT 10SM -RA FEW055 OVC100 17/15 A2988 RMK AO2
                 SLP118 P0000 T01720150 $ =
2017-10-16 05:56 METAR KHWV 160956Z AUTO 31007KT 10SM -RA FEW047 OVC070 18/14 A2985 RMK AO2 RAB39
                 SLP106 P0000 T01780144 $ =
2017-10-16 04:56 METAR KHWV 160856Z AUTO 31012G20KT 10SM OVC095 19/13 A2982 RMK AO2 SLP098
                 T01940133 51010 $ =
2017-10-16 03:56 METAR KHWV 160756Z AUTO 31014G22KT 10SM OVC031 21/14 A2982 RMK AO2 WSHFT 0707
                 SLP095 T02060139 $ =
2017-10-16 03:51 METAR KHWV 160751Z AUTO 30017G22KT 10SM OVC031 21/14 A2981 RMK AO2 WSHFT 0707 $
                 =
2017-10-16 03:27 METAR KHWV 160727Z AUTO 32015G21KT 10SM FEW010 SCT014 OVC025 21/16 A2981 RMK AO2
                 WSHFT 0707 T02110156 $ =
2017-10-16 03:16 METAR KHWV 160716Z AUTO 30014G20KT 10SM SCT009 BKN015 OVC023 22/18 A2980 RMK AO2
                 T02170183 $ =
2017-10-16 02:56 METAR KHWV 160656Z AUTO 25006KT 9SM BKN010 OVC015 22/20 A2979 RMK AO2 CIG
                 006V012 SLP088 T02170200 $ =
2017-10-16 02:35 METAR KHWV 160635Z AUTO 22006KT 9SM OVC013 22/20 A2980 RMK AO2 T02170200 $ =
2017-10-16 01:56 METAR KHWV 160556Z AUTO 22008KT 8SM OVC006 22/20 A2982 RMK AO2 CIG 005V010
                 SLP096 T02170200 10217 20211 55007 $ =
2017-10-16 00:56 METAR KHWV 160456Z AUTO 21010G19KT 7SM OVC005 21/20 A2981 RMK AO2 SLP092
                 T02110200 402280189 $ =
2017-10-15 23:56 METAR KHWV 160356Z AUTO 21010G22KT 7SM OVC005 21/19 A2982 RMK AO2 SLP097
                 T02110194 $ =
2017-10-15 22:56 METAR KHWV 160256Z AUTO 20013G20KT 9SM OVC006 21/19 A2984 RMK AO2 SLP103
                 T02110194 56006 $ =
2017-10-15 21:56 METAR KHWV 160156Z AUTO 22013G22KT 8SM OVC005 21/19 A2984 RMK AO2 SLP105
                 T02110194 $ =
2017-10-15 20:56 METAR KHWV 160056Z AUTO 20012G19KT 9SM BKN006 OVC022 21/19 A2984 RMK AO2 CIG
                 005V010 SLP104 T02110194 $ =
2017-10-15 19:56 METAR KHWV 152356Z AUTO 20013G19KT 9SM OVC006 21/19 A2986 RMK AO2 SLP110
                 T02110194 10228 20211 56011 $ =
2017-10-15 18:56 METAR KHWV 152256Z AUTO 20011G20KT 9SM OVC005 21/19 A2987 RMK AO2 SLP114
                 T02110194 $ =

Support USWX by starting your Amazon purchase here.